createdAt,value
2023-05-04T05:01:08.586Z,25.00
2023-05-04T05:02:08.545Z,25.00
2023-05-04T05:03:08.593Z,25.00
2023-05-04T05:04:08.635Z,25.00
2023-05-04T05:05:08.807Z,25.00
2023-05-04T05:06:08.663Z,25.00
2023-05-04T05:07:08.712Z,0.00
2023-05-04T05:08:08.793Z,0.00
2023-05-04T05:09:08.815Z,0.00
2023-05-04T05:10:08.949Z,0.00
2023-05-04T05:11:08.898Z,0.00
2023-05-04T05:12:08.943Z,0.00
2023-05-04T05:13:09.093Z,0.00
2023-05-04T05:14:09.013Z,0.00
2023-05-04T05:15:09.003Z,0.00
2023-05-04T05:16:09.097Z,0.00
2023-05-04T05:17:09.092Z,0.00
2023-05-04T05:18:09.107Z,0.00
2023-05-04T05:19:09.102Z,0.00
2023-05-04T05:20:09.127Z,0.00
2023-05-04T05:21:09.098Z,0.00
2023-05-04T05:22:09.142Z,0.00
2023-05-04T05:23:09.181Z,0.00
2023-05-04T05:24:09.195Z,0.00
2023-05-04T05:25:09.203Z,0.00
2023-05-04T05:26:09.228Z,0.00
2023-05-04T05:27:09.194Z,0.00
2023-05-04T05:28:09.243Z,0.00
2023-05-04T05:29:09.226Z,3.86
2023-05-04T05:30:09.298Z,25.39
2023-05-04T05:31:09.302Z,25.49
2023-05-04T05:32:09.506Z,25.00
2023-05-04T05:33:09.335Z,26.39
2023-05-04T05:34:09.331Z,25.11
2023-05-04T05:35:10.472Z,26.58
2023-05-04T05:36:09.443Z,27.15
2023-05-04T05:37:09.370Z,25.47
2023-05-04T05:38:09.369Z,26.27
2023-05-04T05:39:09.380Z,26.38
2023-05-04T05:40:09.424Z,27.81
2023-05-04T05:41:09.418Z,26.79
2023-05-04T05:42:09.400Z,25.89
2023-05-04T05:43:09.471Z,30.06
2023-05-04T05:44:11.126Z,24.78
2023-05-04T05:45:09.424Z,25.00
2023-05-04T05:46:09.425Z,25.00
2023-05-04T05:47:09.641Z,25.22
2023-05-04T05:48:09.442Z,21.65
2023-05-04T05:49:09.462Z,25.00
2023-05-04T05:50:09.400Z,29.32
2023-05-04T05:51:09.367Z,28.38
2023-05-04T05:52:09.334Z,25.04
2023-05-04T05:53:09.374Z,25.35
2023-05-04T05:54:09.408Z,29.99
2023-05-04T05:55:09.342Z,24.35
2023-05-04T05:56:09.359Z,27.18
2023-05-04T05:57:09.358Z,25.41
2023-05-04T05:58:09.357Z,25.22
2023-05-04T05:59:09.351Z,25.00
2023-05-04T06:00:09.287Z,25.00
2023-05-04T06:01:09.520Z,25.00
2023-05-04T06:02:09.395Z,25.27
2023-05-04T06:03:09.362Z,32.39
2023-05-04T06:04:10.054Z,39.02
2023-05-04T06:05:09.364Z,41.17
2023-05-04T06:06:09.255Z,47.67
2023-05-04T06:07:09.267Z,45.68
2023-05-04T06:08:09.328Z,43.04
2023-05-04T06:09:09.243Z,40.06
2023-05-04T06:10:09.376Z,52.40
2023-05-04T06:11:09.235Z,59.32
2023-05-04T06:12:09.198Z,57.74
2023-05-04T06:13:09.356Z,60.41
2023-05-04T06:14:09.270Z,62.37
2023-05-04T06:15:09.281Z,65.72
2023-05-04T06:16:09.216Z,69.14
2023-05-04T06:17:09.208Z,70.69
2023-05-04T06:18:09.448Z,68.83
2023-05-04T06:19:09.195Z,72.79
2023-05-04T06:20:09.222Z,78.70
2023-05-04T06:21:09.163Z,79.18
2023-05-04T06:22:09.204Z,86.28
2023-05-04T06:23:09.276Z,87.34
2023-05-04T06:24:09.162Z,86.23
2023-05-04T06:25:09.484Z,95.49
2023-05-04T06:26:09.213Z,93.96
2023-05-04T06:27:09.148Z,97.40
2023-05-04T06:28:09.193Z,99.49
2023-05-04T06:29:09.084Z,100.23
2023-05-04T06:30:09.415Z,97.73
2023-05-04T06:31:09.220Z,97.38
2023-05-04T06:32:09.403Z,104.82
2023-05-04T06:33:09.170Z,105.00
2023-05-04T06:34:09.107Z,104.44
2023-05-04T06:35:09.178Z,104.87
2023-05-04T06:36:09.076Z,104.77
2023-05-04T06:37:09.152Z,107.94
2023-05-04T06:38:09.053Z,116.71
2023-05-04T06:39:09.038Z,121.41
2023-05-04T06:40:09.373Z,114.76
2023-05-04T06:41:09.027Z,127.26
2023-05-04T06:42:09.041Z,117.31
2023-05-04T06:43:09.022Z,119.31
2023-05-04T06:44:08.999Z,118.96
2023-05-04T06:45:09.062Z,116.53
2023-05-04T06:46:09.322Z,121.50
2023-05-04T06:47:09.003Z,117.85
2023-05-04T06:48:09.181Z,122.78
2023-05-04T06:49:09.156Z,135.35
2023-05-04T06:50:09.186Z,139.08
2023-05-04T06:51:09.254Z,142.22
2023-05-04T06:52:09.295Z,150.52
2023-05-04T06:53:10.221Z,154.83
2023-05-04T06:54:09.435Z,146.54
2023-05-04T06:55:09.489Z,145.23
2023-05-04T06:56:09.407Z,136.73
2023-05-04T06:57:09.508Z,128.97
2023-05-04T06:58:09.367Z,121.79
2023-05-04T06:59:09.419Z,131.01
2023-05-04T07:00:09.394Z,138.21
2023-05-04T07:01:09.437Z,146.57
2023-05-04T07:02:09.447Z,153.32
2023-05-04T07:03:09.412Z,155.92
2023-05-04T07:04:09.660Z,154.59
2023-05-04T07:05:09.443Z,143.92
2023-05-04T07:06:09.458Z,150.97
2023-05-04T07:07:09.968Z,148.65
2023-05-04T07:08:09.594Z,142.57
2023-05-04T07:09:09.614Z,146.40
2023-05-04T07:10:10.484Z,151.80
2023-05-04T07:11:12.735Z,150.72
2023-05-04T07:12:09.741Z,140.24
2023-05-04T07:13:09.889Z,148.29
2023-05-04T07:14:10.517Z,148.71
2023-05-04T07:15:09.706Z,145.67
2023-05-04T07:16:09.672Z,151.77
2023-05-04T07:17:09.673Z,159.24
2023-05-04T07:18:09.690Z,164.50
2023-05-04T07:19:10.116Z,146.75
2023-05-04T07:20:09.621Z,144.17
2023-05-04T07:21:26.220Z,156.55
2023-05-04T07:22:10.607Z,156.98
2023-05-04T07:23:09.765Z,143.99
2023-05-04T07:24:09.591Z,138.01
2023-05-04T07:25:09.854Z,140.86
2023-05-04T07:26:09.604Z,144.57
2023-05-04T07:27:09.638Z,118.52
2023-05-04T07:28:09.576Z,120.88
2023-05-04T07:29:09.590Z,133.96
2023-05-04T07:30:09.564Z,140.19
2023-05-04T07:31:09.729Z,142.48
2023-05-04T07:32:09.579Z,141.05
2023-05-04T07:33:09.571Z,140.24
2023-05-04T07:34:09.726Z,129.94
2023-05-04T07:35:09.648Z,132.70
2023-05-04T07:36:09.926Z,122.76
2023-05-04T07:37:09.761Z,132.67
2023-05-04T07:38:09.748Z,138.49
2023-05-04T07:39:09.764Z,139.01
2023-05-04T07:40:09.839Z,130.44
2023-05-04T07:41:09.825Z,115.13
2023-05-04T07:42:09.900Z,127.40
2023-05-04T07:43:09.877Z,128.04
2023-05-04T07:44:10.036Z,125.41
2023-05-04T07:45:10.157Z,90.72
2023-05-04T07:46:10.056Z,92.46
2023-05-04T07:47:10.318Z,80.77
2023-05-04T07:48:10.119Z,83.08
2023-05-04T07:49:10.128Z,78.41
2023-05-04T07:50:10.207Z,87.60
2023-05-04T07:51:10.217Z,91.27
2023-05-04T07:52:10.285Z,86.13
2023-05-04T07:53:12.021Z,61.89
2023-05-04T07:54:10.372Z,79.02
2023-05-04T07:55:10.422Z,101.42
2023-05-04T07:56:10.470Z,86.11
2023-05-04T07:57:10.591Z,91.68
2023-05-04T07:58:10.550Z,92.21
2023-05-04T07:59:10.622Z,98.22
2023-05-04T08:00:10.674Z,90.63
2023-05-04T08:01:10.733Z,85.29
2023-05-04T08:02:10.871Z,111.55
2023-05-04T08:03:10.993Z,135.51
2023-05-04T08:04:10.836Z,116.71
2023-05-04T08:05:10.940Z,142.50
2023-05-04T08:06:10.998Z,137.60
2023-05-04T08:07:11.003Z,138.96
2023-05-04T08:08:11.310Z,125.79
2023-05-04T08:09:11.105Z,124.35
2023-05-04T08:10:11.215Z,138.31
2023-05-04T08:11:19.972Z,114.73
2023-05-04T08:12:13.075Z,114.79
2023-05-04T08:13:11.273Z,112.93
2023-05-04T08:14:11.134Z,98.69
2023-05-04T08:15:11.197Z,87.79
2023-05-04T08:16:11.165Z,100.55
2023-05-04T08:17:11.523Z,108.93
2023-05-04T08:18:11.120Z,113.22
2023-05-04T08:19:11.153Z,82.53
2023-05-04T08:20:11.120Z,81.55
2023-05-04T08:21:11.195Z,75.24
2023-05-04T08:22:11.432Z,75.84
2023-05-04T08:23:11.318Z,49.22
2023-05-04T08:24:11.329Z,37.17
2023-05-04T08:25:11.368Z,28.24
2023-05-04T08:26:11.530Z,30.89
2023-05-04T08:27:11.378Z,4.87
2023-05-04T08:28:11.511Z,9.93
2023-05-04T08:29:11.416Z,0.00
2023-05-04T08:30:11.507Z,25.10
2023-05-04T08:31:11.597Z,37.85
2023-05-04T08:32:11.467Z,24.82
2023-05-04T08:33:11.570Z,25.27
2023-05-04T08:34:11.561Z,57.83
2023-05-04T08:35:11.601Z,70.68
2023-05-04T08:36:11.683Z,85.11
2023-05-04T08:37:11.741Z,89.17
2023-05-04T08:38:11.782Z,101.11
2023-05-04T08:39:11.807Z,92.83
2023-05-04T08:40:12.322Z,85.19
2023-05-04T08:41:11.831Z,97.83
2023-05-04T08:42:11.967Z,131.11
2023-05-04T08:43:11.865Z,133.58
2023-05-04T08:44:11.874Z,154.46
2023-05-04T08:45:11.919Z,162.12
2023-05-04T08:46:11.925Z,188.14
2023-05-04T08:47:11.991Z,200.83
2023-05-04T08:48:11.914Z,212.40
2023-05-04T08:49:12.380Z,212.54
2023-05-04T08:50:11.918Z,216.20
2023-05-04T08:51:11.883Z,228.65
2023-05-04T08:52:11.917Z,249.80
2023-05-04T08:53:11.951Z,284.17
2023-05-04T08:54:11.872Z,251.41
2023-05-04T08:55:11.948Z,250.00
2023-05-04T08:56:11.860Z,250.00
2023-05-04T08:57:11.885Z,250.00
2023-05-04T08:58:11.955Z,250.00
2023-05-04T08:59:12.006Z,250.00
2023-05-04T09:00:12.090Z,246.29
2023-05-04T09:01:12.109Z,249.99
2023-05-04T09:02:12.083Z,250.32
2023-05-04T09:03:12.184Z,249.55
2023-05-04T09:04:12.223Z,250.00
2023-05-04T09:05:12.198Z,250.00
2023-05-04T09:06:12.340Z,249.09
2023-05-04T09:07:12.268Z,248.90
2023-05-04T09:08:12.364Z,250.09
2023-05-04T09:09:12.474Z,249.26
2023-05-04T09:10:12.468Z,249.76
2023-05-04T09:11:12.480Z,248.74
2023-05-04T09:12:12.461Z,248.84
2023-05-04T09:13:12.560Z,250.00
2023-05-04T09:14:12.587Z,249.01
2023-05-04T09:15:15.626Z,250.00
2023-05-04T09:16:14.664Z,246.24
2023-05-04T09:17:12.787Z,246.28
2023-05-04T09:18:12.670Z,226.89
2023-05-04T09:19:12.600Z,214.33
2023-05-04T09:20:12.576Z,237.56
2023-05-04T09:21:12.621Z,239.64
2023-05-04T09:22:12.610Z,234.81
2023-05-04T09:23:12.608Z,230.58
2023-05-04T09:24:13.142Z,230.82
2023-05-04T09:25:12.641Z,231.08
2023-05-04T09:26:12.652Z,231.40
2023-05-04T09:27:12.734Z,234.79
2023-05-04T09:28:12.795Z,233.11
2023-05-04T09:29:13.159Z,196.20
2023-05-04T09:30:12.877Z,176.04
2023-05-04T09:31:12.949Z,153.95
2023-05-04T09:32:13.118Z,146.55
2023-05-04T09:33:12.950Z,156.23
2023-05-04T09:34:12.958Z,146.00
2023-05-04T09:35:25.315Z,138.51
2023-05-04T09:36:13.962Z,130.32
2023-05-04T09:37:13.000Z,123.63
2023-05-04T09:38:12.962Z,123.59
2023-05-04T09:39:12.973Z,103.92
2023-05-04T09:40:12.946Z,98.87
2023-05-04T09:41:12.933Z,83.01
2023-05-04T09:42:13.046Z,86.78
2023-05-04T09:43:12.924Z,102.37
2023-05-04T09:44:12.943Z,94.47
2023-05-04T09:45:13.021Z,88.14
2023-05-04T09:46:12.969Z,88.17
2023-05-04T09:47:12.940Z,89.59
2023-05-04T09:48:12.961Z,87.85
2023-05-04T09:49:12.925Z,70.20
2023-05-04T09:50:12.889Z,75.87
2023-05-04T09:51:12.932Z,72.20
2023-05-04T09:52:12.886Z,81.12
2023-05-04T09:53:12.882Z,53.05
2023-05-04T09:54:12.899Z,51.47
2023-05-04T09:55:12.911Z,46.70
2023-05-04T09:56:12.904Z,25.00
2023-05-04T09:57:13.036Z,28.30
2023-05-04T09:58:12.964Z,39.85
2023-05-04T09:59:12.965Z,28.88
2023-05-04T10:00:13.052Z,22.86
2023-05-04T10:01:13.024Z,26.51
2023-05-04T10:02:21.816Z,27.21
2023-05-04T10:03:14.063Z,27.65
2023-05-04T10:04:13.001Z,28.77
2023-05-04T10:05:12.990Z,28.89
2023-05-04T10:06:12.967Z,22.33
2023-05-04T10:07:12.948Z,24.55
2023-05-04T10:08:12.973Z,41.66
2023-05-04T10:09:12.963Z,54.13
2023-05-04T10:10:12.981Z,44.75
2023-05-04T10:11:12.926Z,65.30
2023-05-04T10:12:12.919Z,45.29
2023-05-04T10:13:12.993Z,41.07
2023-05-04T10:14:12.937Z,57.62
2023-05-04T10:15:12.952Z,53.77
2023-05-04T10:16:13.028Z,22.57
2023-05-04T10:17:13.895Z,29.74
2023-05-04T10:18:12.912Z,34.60
2023-05-04T10:19:12.924Z,44.19
2023-05-04T10:20:12.908Z,54.44
2023-05-04T10:21:12.849Z,55.10
2023-05-04T10:22:12.878Z,59.57
2023-05-04T10:23:12.866Z,68.58
2023-05-04T10:24:12.858Z,69.16
2023-05-04T10:25:12.864Z,71.92
2023-05-04T10:26:12.861Z,58.95
2023-05-04T10:27:12.890Z,72.93
2023-05-04T10:28:12.813Z,59.71
2023-05-04T10:29:12.799Z,61.19
2023-05-04T10:30:12.779Z,69.24
2023-05-04T10:31:12.818Z,67.69
2023-05-04T10:32:13.077Z,81.41
2023-05-04T10:33:12.774Z,88.28
2023-05-04T10:34:12.817Z,88.26
2023-05-04T10:35:12.778Z,84.43
2023-05-04T10:36:12.782Z,67.00
2023-05-04T10:37:12.836Z,64.57
2023-05-04T10:38:12.815Z,61.50
2023-05-04T10:39:12.882Z,59.92
2023-05-04T10:40:12.844Z,56.41
2023-05-04T10:41:12.856Z,66.69
2023-05-04T10:42:12.850Z,59.59
2023-05-04T10:43:12.913Z,63.16
2023-05-04T10:44:12.928Z,59.03
2023-05-04T10:45:12.957Z,54.74
2023-05-04T10:46:12.950Z,56.70
2023-05-04T10:47:12.885Z,57.69
2023-05-04T10:48:13.002Z,59.63
2023-05-04T10:49:12.967Z,56.11
2023-05-04T10:50:13.013Z,64.55
2023-05-04T10:51:13.097Z,79.86
2023-05-04T10:52:13.039Z,73.34
2023-05-04T10:53:13.098Z,58.84
2023-05-04T10:54:13.025Z,68.23
2023-05-04T10:55:13.018Z,84.53
2023-05-04T10:56:13.099Z,64.06
2023-05-04T10:57:13.075Z,57.88
2023-05-04T10:58:13.069Z,48.15
2023-05-04T10:59:13.190Z,62.19
2023-05-04T11:00:13.162Z,50.70
2023-05-04T11:01:13.223Z,66.36
2023-05-04T11:02:13.258Z,66.50
2023-05-04T11:03:13.326Z,58.86
2023-05-04T11:04:13.234Z,46.82
2023-05-04T11:05:13.277Z,61.74
2023-05-04T11:06:13.288Z,61.33
2023-05-04T11:07:13.332Z,63.57
2023-05-04T11:08:13.329Z,63.30
2023-05-04T11:09:13.365Z,42.96
2023-05-04T11:10:13.356Z,58.26
2023-05-04T11:11:13.361Z,56.83
2023-05-04T11:12:13.382Z,16.22
2023-05-04T11:13:13.470Z,21.96
2023-05-04T11:14:13.461Z,40.56
2023-05-04T11:15:13.554Z,51.57
2023-05-04T11:16:13.530Z,60.13
2023-05-04T11:17:26.771Z,77.55
2023-05-04T11:18:14.548Z,77.86
2023-05-04T11:19:13.496Z,80.23
2023-05-04T11:20:13.492Z,89.07
2023-05-04T11:21:13.515Z,101.31
2023-05-04T11:22:13.525Z,125.86
2023-05-04T11:23:13.497Z,113.10
2023-05-04T11:24:13.445Z,107.27
2023-05-04T11:25:13.458Z,97.15
2023-05-04T11:26:13.442Z,106.13
2023-05-04T11:27:13.480Z,105.01
2023-05-04T11:28:14.684Z,101.23
2023-05-04T11:29:13.612Z,108.55
2023-05-04T11:30:13.636Z,117.64
2023-05-04T11:31:13.658Z,90.49
2023-05-04T11:32:13.636Z,104.24
2023-05-04T11:33:13.676Z,97.64
2023-05-04T11:34:13.686Z,106.88
2023-05-04T11:35:13.717Z,108.45
2023-05-04T11:36:13.771Z,124.09
2023-05-04T11:37:13.808Z,126.42
2023-05-04T11:38:13.908Z,105.80
2023-05-04T11:39:13.964Z,113.32
2023-05-04T11:40:14.031Z,103.85
2023-05-04T11:41:14.002Z,108.00
2023-05-04T11:42:14.073Z,113.07
2023-05-04T11:43:14.110Z,107.61
2023-05-04T11:44:14.161Z,99.72
2023-05-04T11:45:14.243Z,108.15
2023-05-04T11:46:14.288Z,108.04
2023-05-04T11:47:14.303Z,109.17
2023-05-04T11:49:14.430Z,122.52
2023-05-04T11:50:14.547Z,130.29
2023-05-04T11:51:14.561Z,142.51
2023-05-04T11:52:14.707Z,127.05
2023-05-04T11:53:14.704Z,100.40
2023-05-04T11:54:14.713Z,98.00
2023-05-04T11:55:14.857Z,92.52
2023-05-04T11:56:14.814Z,92.81
2023-05-04T11:57:14.872Z,85.36
2023-05-04T11:58:14.937Z,75.51
2023-05-04T11:59:14.960Z,85.58
2023-05-04T12:00:15.027Z,105.92
2023-05-04T12:01:15.048Z,113.58
2023-05-04T12:02:15.168Z,80.36
2023-05-04T12:03:15.342Z,123.02
2023-05-04T12:04:15.301Z,119.08
2023-05-04T12:05:15.293Z,76.12
2023-05-04T12:06:15.320Z,90.27
2023-05-04T12:07:15.387Z,86.73
2023-05-04T12:08:15.431Z,74.94
2023-05-04T12:09:15.451Z,78.80
2023-05-04T12:10:15.514Z,69.23
2023-05-04T12:11:15.643Z,61.38
2023-05-04T12:12:15.604Z,64.18
2023-05-04T12:13:15.765Z,89.96
2023-05-04T12:14:15.763Z,98.99
2023-05-04T12:15:15.765Z,101.21
2023-05-04T12:16:15.873Z,106.56
2023-05-04T12:17:15.889Z,113.34
2023-05-04T12:18:15.919Z,114.95
2023-05-04T12:19:15.998Z,103.15
2023-05-04T12:20:16.007Z,102.65
2023-05-04T12:21:16.033Z,89.08
2023-05-04T12:22:16.124Z,91.04
2023-05-04T12:23:16.128Z,91.00
2023-05-04T12:24:16.177Z,94.19
2023-05-04T12:25:16.228Z,79.85
2023-05-04T12:26:19.444Z,61.73
2023-05-04T12:27:16.710Z,54.39
2023-05-04T12:28:16.283Z,61.13
2023-05-04T12:29:16.234Z,65.69
2023-05-04T12:30:16.251Z,52.12
2023-05-04T12:31:17.666Z,33.67
2023-05-04T12:32:16.362Z,62.96
2023-05-04T12:33:16.232Z,49.64
2023-05-04T12:34:16.214Z,36.42
2023-05-04T12:35:16.202Z,37.15
2023-05-04T12:36:16.224Z,55.15
2023-05-04T12:37:16.218Z,49.95
2023-05-04T12:38:16.192Z,44.57
2023-05-04T12:39:16.238Z,43.24
2023-05-04T12:40:27.789Z,60.73
2023-05-04T12:41:17.183Z,45.09
2023-05-04T12:42:16.168Z,54.27
2023-05-04T12:43:16.249Z,40.78
2023-05-04T12:44:16.163Z,34.21
2023-05-04T12:45:16.127Z,55.59
2023-05-04T12:46:16.248Z,42.40
2023-05-04T12:47:16.136Z,58.62
2023-05-04T12:48:16.107Z,44.23
2023-05-04T12:49:16.100Z,65.48
2023-05-04T12:50:16.105Z,67.84
2023-05-04T12:51:16.106Z,53.04
2023-05-04T12:52:16.132Z,55.48
2023-05-04T12:53:16.197Z,61.09
2023-05-04T12:54:16.188Z,44.91
2023-05-04T12:55:16.226Z,57.31
2023-05-04T12:56:16.284Z,55.83
2023-05-04T12:57:16.360Z,62.82
2023-05-04T12:58:16.336Z,59.14
2023-05-04T12:59:16.440Z,66.40
2023-05-04T13:00:16.411Z,71.45
2023-05-04T13:01:16.499Z,71.96
2023-05-04T13:02:16.542Z,60.79
2023-05-04T13:03:16.584Z,72.08
2023-05-04T13:04:16.555Z,52.86
2023-05-04T13:05:16.556Z,71.50
2023-05-04T13:06:16.655Z,62.67
2023-05-04T13:07:16.636Z,64.96
2023-05-04T13:08:16.668Z,81.30
2023-05-04T13:09:16.701Z,101.37
2023-05-04T13:10:16.741Z,103.88
2023-05-04T13:11:16.809Z,108.56
2023-05-04T13:12:16.805Z,95.90
2023-05-04T13:13:16.920Z,91.23
2023-05-04T13:14:16.840Z,89.50
2023-05-04T13:15:16.883Z,86.97
2023-05-04T13:16:17.022Z,107.21
2023-05-04T13:17:16.938Z,112.15
2023-05-04T13:18:16.955Z,89.27
2023-05-04T13:19:16.991Z,112.69
2023-05-04T13:20:16.981Z,113.98
2023-05-04T13:21:17.056Z,107.41
2023-05-04T13:22:17.050Z,104.60
2023-05-04T13:23:17.079Z,105.15
2023-05-04T13:24:17.115Z,113.75
2023-05-04T13:25:17.106Z,121.95
2023-05-04T13:26:17.149Z,114.84
2023-05-04T13:27:17.168Z,89.71
2023-05-04T13:28:17.238Z,103.01
2023-05-04T13:29:17.205Z,103.93
2023-05-04T13:30:17.261Z,99.26
2023-05-04T13:31:17.315Z,65.85
2023-05-04T13:32:17.353Z,63.87
2023-05-04T13:33:28.795Z,90.95
2023-05-04T13:34:18.295Z,91.40
2023-05-04T13:35:17.276Z,87.86
2023-05-04T13:36:17.257Z,94.00
2023-05-04T13:37:17.292Z,84.43
2023-05-04T13:38:17.259Z,106.20
2023-05-04T13:39:17.341Z,88.56
2023-05-04T13:40:17.274Z,100.30
2023-05-04T13:41:17.221Z,102.34
2023-05-04T13:42:17.222Z,117.55
2023-05-04T13:43:17.252Z,127.44
2023-05-04T13:44:17.238Z,124.63
2023-05-04T13:45:17.339Z,123.40
2023-05-04T13:46:18.182Z,123.52
2023-05-04T13:47:17.262Z,120.91
2023-05-04T13:48:17.334Z,121.49
2023-05-04T13:49:17.323Z,124.61
2023-05-04T13:50:17.308Z,123.60
2023-05-04T13:51:17.426Z,125.10
2023-05-04T13:52:17.339Z,125.29
2023-05-04T13:53:17.350Z,124.27
2023-05-04T13:54:17.634Z,128.10
2023-05-04T13:55:17.398Z,121.42
2023-05-04T13:56:17.372Z,122.09
2023-05-04T13:57:18.243Z,121.37
2023-05-04T13:58:17.385Z,127.73
2023-05-04T13:59:18.132Z,128.33
2023-05-04T14:00:18.096Z,122.26
2023-05-04T14:01:17.524Z,100.35
2023-05-04T14:02:17.479Z,117.00
2023-05-04T14:03:17.447Z,118.53
2023-05-04T14:04:17.384Z,117.87
2023-05-04T14:05:17.383Z,118.79
2023-05-04T14:06:17.470Z,114.19
2023-05-04T14:07:17.377Z,129.35
2023-05-04T14:08:17.345Z,138.31
2023-05-04T14:09:17.365Z,144.19
2023-05-04T14:10:17.367Z,147.57
2023-05-04T14:11:17.385Z,156.94
2023-05-04T14:12:17.361Z,156.81
2023-05-04T14:13:17.516Z,160.08
2023-05-04T14:14:19.262Z,162.94
2023-05-04T14:15:17.461Z,163.88
2023-05-04T14:16:17.581Z,169.09
2023-05-04T14:17:18.216Z,171.59
2023-05-04T14:18:17.665Z,175.83
2023-05-04T14:19:17.612Z,179.92
2023-05-04T14:20:17.598Z,181.01
2023-05-04T14:21:17.742Z,181.42
2023-05-04T14:22:17.636Z,184.72
2023-05-04T14:23:18.195Z,189.24
2023-05-04T14:24:17.673Z,189.90
2023-05-04T14:25:17.671Z,192.43
2023-05-04T14:26:17.727Z,192.34
2023-05-04T14:27:17.721Z,194.37
2023-05-04T14:28:17.752Z,196.53
2023-05-04T14:29:18.461Z,196.62
2023-05-04T14:30:17.747Z,200.78
2023-05-04T14:31:17.774Z,202.08
2023-05-04T14:32:18.056Z,201.48
2023-05-04T14:33:17.852Z,203.53
2023-05-04T14:34:17.866Z,204.51
2023-05-04T14:35:18.632Z,205.31
2023-05-04T14:36:17.899Z,207.37
2023-05-04T14:37:17.926Z,208.82
2023-05-04T14:38:17.952Z,208.90
2023-05-04T14:39:18.009Z,210.38
2023-05-04T14:40:18.053Z,212.22
2023-05-04T14:41:18.077Z,211.30
2023-05-04T14:42:18.029Z,213.27
2023-05-04T14:43:18.126Z,218.92
2023-05-04T14:44:18.146Z,221.14
2023-05-04T14:45:18.177Z,220.52
2023-05-04T14:46:18.244Z,220.76
2023-05-04T14:47:18.284Z,221.66
2023-05-04T14:48:19.160Z,221.96
2023-05-04T14:49:28.772Z,221.09
2023-05-04T14:50:19.314Z,221.31
2023-05-04T14:51:18.360Z,221.79
2023-05-04T14:52:20.174Z,222.72
2023-05-04T14:53:18.295Z,224.31
2023-05-04T14:54:18.283Z,228.43
2023-05-04T14:55:18.275Z,228.52
2023-05-04T14:56:23.668Z,228.43
2023-05-04T14:57:18.338Z,228.50
2023-05-04T14:58:18.345Z,228.79
2023-05-04T14:59:19.766Z,228.70
2023-05-04T15:00:18.483Z,229.12
2023-05-04T15:01:19.186Z,230.34
2023-05-04T15:02:18.817Z,229.64
2023-05-04T15:03:18.670Z,230.97
2023-05-04T15:04:18.863Z,230.22
2023-05-04T15:05:19.942Z,231.95
2023-05-04T15:06:18.778Z,229.76
2023-05-04T15:07:18.772Z,230.49
2023-05-04T15:08:18.810Z,230.51
2023-05-04T15:09:18.907Z,230.62
2023-05-04T15:10:18.922Z,233.71
2023-05-04T15:11:19.457Z,230.81
2023-05-04T15:12:19.047Z,232.59
2023-05-04T15:13:19.065Z,233.08
2023-05-04T15:14:19.181Z,233.00
2023-05-04T15:15:19.092Z,233.05
2023-05-04T15:16:19.273Z,232.38
2023-05-04T15:17:20.264Z,232.33
2023-05-04T15:18:19.218Z,232.16
2023-05-04T15:19:19.274Z,232.79
2023-05-04T15:20:19.300Z,232.46
2023-05-04T15:21:19.313Z,232.70
2023-05-04T15:22:19.327Z,232.37
2023-05-04T15:23:19.473Z,231.84
2023-05-04T15:24:19.433Z,232.21
2023-05-04T15:25:19.467Z,233.16
2023-05-04T15:26:19.513Z,232.93
2023-05-04T15:27:19.546Z,232.77
2023-05-04T15:28:19.710Z,234.62
2023-05-04T15:29:19.599Z,233.30
2023-05-04T15:30:19.605Z,233.65
2023-05-04T15:31:19.748Z,233.26
2023-05-04T15:32:19.686Z,233.49
2023-05-04T15:33:19.699Z,232.91
2023-05-04T15:34:19.751Z,232.75
2023-05-04T15:35:19.745Z,233.95
2023-05-04T15:36:19.734Z,232.69
2023-05-04T15:37:19.777Z,232.63
2023-05-04T15:38:27.739Z,230.42
2023-05-04T15:39:19.811Z,230.75
2023-05-04T15:40:19.768Z,231.32
2023-05-04T15:41:19.761Z,231.86
2023-05-04T15:42:19.754Z,231.71
2023-05-04T15:43:19.816Z,232.46
2023-05-04T15:44:19.749Z,232.84
2023-05-04T15:45:19.833Z,232.58
2023-05-04T15:46:19.718Z,233.44
2023-05-04T15:47:19.694Z,233.89
2023-05-04T15:48:19.742Z,232.21
2023-05-04T15:49:19.737Z,231.82
2023-05-04T15:50:19.695Z,229.64
2023-05-04T15:51:19.775Z,231.58
2023-05-04T15:52:19.744Z,231.55
2023-05-04T15:53:19.762Z,231.59
2023-05-04T15:54:19.782Z,230.79
2023-05-04T15:55:25.741Z,229.68
2023-05-04T15:56:20.764Z,229.83
2023-05-04T15:57:20.169Z,230.21
2023-05-04T15:58:19.751Z,230.53
2023-05-04T15:59:19.771Z,230.62
2023-05-04T16:00:19.783Z,230.50
2023-05-04T16:01:19.809Z,230.36
2023-05-04T16:02:19.873Z,229.71
2023-05-04T16:03:19.870Z,229.29
2023-05-04T16:04:19.765Z,228.02
2023-05-04T16:05:19.734Z,227.79
2023-05-04T16:06:20.296Z,229.50
2023-05-04T16:07:19.687Z,228.28
2023-05-04T16:08:19.907Z,228.80
2023-05-04T16:09:19.989Z,228.66
2023-05-04T16:10:19.691Z,228.08
2023-05-04T16:11:19.651Z,228.48
2023-05-04T16:12:19.652Z,229.61
2023-05-04T16:13:19.688Z,228.91
2023-05-04T16:14:19.654Z,228.28
2023-05-04T16:15:19.704Z,227.90
2023-05-04T16:16:19.662Z,228.15
2023-05-04T16:17:19.652Z,227.68
2023-05-04T16:18:19.668Z,229.37
2023-05-04T16:19:19.677Z,227.39
2023-05-04T16:20:19.689Z,226.58
2023-05-04T16:21:20.226Z,228.46
2023-05-04T16:22:19.716Z,227.72
2023-05-04T16:23:20.215Z,227.28
2023-05-04T16:24:19.739Z,227.53
2023-05-04T16:25:19.796Z,227.09
2023-05-04T16:26:19.743Z,226.72
2023-05-04T16:27:19.811Z,228.12
2023-05-04T16:28:19.965Z,226.17
2023-05-04T16:29:19.788Z,227.20
2023-05-04T16:30:19.798Z,226.88
2023-05-04T16:31:19.831Z,227.20
2023-05-04T16:32:19.797Z,228.63
2023-05-04T16:33:19.868Z,224.76
2023-05-04T16:34:19.878Z,225.13
2023-05-04T16:35:20.197Z,226.97
2023-05-04T16:36:19.853Z,226.13
2023-05-04T16:37:19.853Z,225.64
2023-05-04T16:38:19.891Z,226.36
2023-05-04T16:39:19.888Z,225.05
2023-05-04T16:40:19.920Z,224.31
2023-05-04T16:41:19.899Z,225.74
2023-05-04T16:42:21.615Z,225.87
2023-05-04T16:43:19.932Z,226.31
2023-05-04T16:44:19.923Z,224.71
2023-05-04T16:45:19.968Z,224.96
2023-05-04T16:46:20.058Z,224.94
2023-05-04T16:47:20.017Z,223.39
2023-05-04T16:48:19.971Z,225.14
2023-05-04T16:49:19.981Z,224.24
2023-05-04T16:50:19.995Z,223.93
2023-05-04T16:51:20.018Z,225.67
2023-05-04T16:52:20.047Z,225.24
2023-05-04T16:53:20.086Z,225.56
2023-05-04T16:54:20.007Z,224.14
2023-05-04T16:55:20.087Z,225.55
2023-05-04T16:56:20.054Z,223.55
2023-05-04T16:57:20.064Z,224.82
2023-05-04T16:58:20.101Z,223.01
2023-05-04T16:59:20.090Z,223.89
2023-05-04T17:00:27.599Z,223.49
